Time;durP1;ratioP1;P1;durP2;ratioP2;P2;SDS_P1;SDS_P2;PMS_P1;PMS_P2;Temp;Humidity;BMP_temperature;BMP_pressure;BME280_temperature;BME280_humidity;BME280_pressure;Samples;Min_cycle;Max_cycle;Signal;HPM_P1;HPM_P2
2023/01/26 00:02:35;;;;;;;;;;;;;;;0.93;86.76;101735.64;105322;1288;59518;-82
2023/01/26 00:05:21;;;;;;;;;;;;;;;0.94;86.85;101734.81;105253;1290;61212;-82
2023/01/26 00:08:07;;;;;;;;;;;;;;;0.96;86.94;101729.30;105185;1289;74213;-82
2023/01/26 00:10:53;;;;;;;;;;;;;;;0.97;86.90;101727.48;105386;1288;67171;-82
2023/01/26 00:13:40;;;;;;;;;;;;;;;0.97;86.87;101728.50;105365;1288;72265;-82
2023/01/26 00:16:26;;;;;;;;;;;;;;;0.95;86.86;101726.90;105280;1290;61196;-82
2023/01/26 00:19:12;;;;;;;;;;;;;;;0.98;86.95;101723.95;105398;1293;60069;-82
2023/01/26 00:21:58;;;;;;;;;;;;;;;1.01;87.02;101718.97;105310;1288;74352;-82
2023/01/26 00:24:44;;;;;;;;;;;;;;;1.03;86.98;101716.34;105295;1291;67498;-82
2023/01/26 00:27:33;;;;;;;;;;;;;;;1.06;87.01;101715.05;105379;1291;71431;-82
2023/01/26 00:30:20;;;;;;;;;;;;;;;1.08;86.98;101714.80;105213;1291;61581;-82
2023/01/26 00:33:06;;;;;;;;;;;;;;;1.09;86.91;101716.23;105395;1288;61105;-82
2023/01/26 00:35:53;;;;;;;;;;;;;;;1.10;86.97;101718.45;105368;1289;73596;-82
2023/01/26 00:38:40;;;;;;;;;;;;;;;1.11;86.93;101719.00;105383;1288;68165;-82
2023/01/26 00:44:31;;;;;;;;;;;;;;;1.12;86.97;101707.02;105429;1293;61167;-82
2023/01/26 00:47:17;;;;;;;;;;;;;;;1.13;86.93;101709.08;105333;1294;63296;-82
2023/01/26 00:50:03;;;;;;;;;;;;;;;1.13;86.96;101709.09;105298;1288;73395;-82
2023/01/26 00:52:49;;;;;;;;;;;;;;;1.12;86.87;101711.08;105441;1293;67442;-82
2023/01/26 00:55:36;;;;;;;;;;;;;;;1.13;86.98;101710.60;105356;1293;71159;-81
2023/01/26 00:58:22;;;;;;;;;;;;;;;1.14;87.00;101707.61;105272;1291;61136;-82
2023/01/26 01:01:08;;;;;;;;;;;;;;;1.15;86.99;101703.73;105276;1291;61357;-81
2023/01/26 01:03:54;;;;;;;;;;;;;;;1.16;86.99;101703.91;105280;1288;73140;-81
2023/01/26 01:06:40;;;;;;;;;;;;;;;1.16;87.04;101699.35;105300;1288;68517;-81
2023/01/26 01:09:26;;;;;;;;;;;;;;;1.16;86.96;101698.85;105302;1293;72471;-81
2023/01/26 01:12:12;;;;;;;;;;;;;;;1.17;86.95;101695.98;105110;1289;61742;-82
2023/01/26 01:14:58;;;;;;;;;;;;;;;1.17;87.00;101685.98;105407;1290;61164;-81
2023/01/26 01:17:44;;;;;;;;;;;;;;;1.17;87.03;101681.73;105419;1288;73948;-82
2023/01/26 01:20:30;;;;;;;;;;;;;;;1.17;86.97;101687.16;105409;1291;68506;-81
2023/01/26 01:23:17;;;;;;;;;;;;;;;1.16;87.00;101685.92;105318;1293;71917;-81
2023/01/26 01:26:04;;;;;;;;;;;;;;;1.15;87.02;101685.04;105431;1294;59594;-81
2023/01/26 01:28:52;;;;;;;;;;;;;;;1.14;87.00;101683.30;105285;1290;59511;-81
2023/01/26 01:31:40;;;;;;;;;;;;;;;1.14;87.13;101678.55;105262;1288;74527;-82
2023/01/26 01:34:26;;;;;;;;;;;;;;;1.15;87.12;101675.70;105394;1288;67196;-81
2023/01/26 01:37:12;;;;;;;;;;;;;;;1.16;87.06;101672.33;105242;1288;73107;-81
2023/01/26 01:39:59;;;;;;;;;;;;;;;1.15;87.09;101664.84;105249;1291;59762;-81
2023/01/26 01:42:46;;;;;;;;;;;;;;;1.15;87.14;101659.73;105353;1288;60566;-81
2023/01/26 01:45:39;;;;;;;;;;;;;;;1.16;87.09;101657.23;105325;1288;73429;-82
2023/01/26 01:48:58;;;;;;;;;;;;;;;1.15;87.08;101655.51;105263;1289;67374;-82
2023/01/26 01:51:48;;;;;;;;;;;;;;;1.15;87.11;101648.20;105201;1290;72394;-82
2023/01/26 01:54:40;;;;;;;;;;;;;;;1.16;87.13;101644.00;105258;1289;59582;-82
2023/01/26 01:57:30;;;;;;;;;;;;;;;1.17;87.14;101636.56;105465;1291;61151;-82
2023/01/26 02:00:18;;;;;;;;;;;;;;;1.17;87.14;101631.98;105269;1288;74458;-82
2023/01/26 02:03:13;;;;;;;;;;;;;;;1.18;87.18;101630.81;105288;1288;68806;-82
2023/01/26 02:06:07;;;;;;;;;;;;;;;1.19;87.22;101634.27;105417;1289;72189;-82
2023/01/26 02:08:54;;;;;;;;;;;;;;;1.19;87.15;101629.52;105372;1294;60139;-82
2023/01/26 02:11:47;;;;;;;;;;;;;;;1.19;87.14;101622.55;105385;1294;61243;-82
2023/01/26 02:14:33;;;;;;;;;;;;;;;1.18;87.09;101621.83;105336;1290;73145;-82
2023/01/26 02:17:19;;;;;;;;;;;;;;;1.19;87.14;101621.34;105438;1291;67418;-82
2023/01/26 02:20:27;;;;;;;;;;;;;;;1.19;87.17;101615.59;105378;1289;71256;-82
2023/01/26 02:23:45;;;;;;;;;;;;;;;1.20;87.15;101612.90;104674;1300;61370;-82
2023/01/26 02:26:33;;;;;;;;;;;;;;;1.21;87.18;101603.08;104284;1303;59267;-82
2023/01/26 02:29:20;;;;;;;;;;;;;;;1.21;87.16;101603.25;104226;1302;72275;-82
2023/01/26 02:32:06;;;;;;;;;;;;;;;1.21;87.18;101602.05;104317;1302;68970;-82
2023/01/26 02:34:55;;;;;;;;;;;;;;;1.22;87.17;101599.38;104318;1305;72569;-82
2023/01/26 02:37:41;;;;;;;;;;;;;;;1.22;87.15;101595.48;104290;1303;61144;-82
2023/01/26 02:40:41;;;;;;;;;;;;;;;1.22;87.17;101587.85;104353;1303;61254;-82
2023/01/26 02:43:27;;;;;;;;;;;;;;;1.23;87.19;101588.54;104329;1303;74146;-82
2023/01/26 02:46:13;;;;;;;;;;;;;;;1.22;87.12;101584.45;104255;1303;67558;-82
2023/01/26 02:52:04;;;;;;;;;;;;;;;1.20;87.08;101581.98;104353;1303;61160;-82
2023/01/26 02:58:01;;;;;;;;;;;;;;;1.09;87.09;101575.26;104287;1305;74618;-82
2023/01/26 03:00:47;;;;;;;;;;;;;;;1.08;87.17;101573.89;104544;1295;70070;-82
2023/01/26 03:03:43;;;;;;;;;;;;;;;1.08;87.11;101572.20;105439;1288;72601;-81
2023/01/26 03:06:30;;;;;;;;;;;;;;;1.09;87.18;101572.23;106148;1293;59247;-83
2023/01/26 03:09:16;;;;;;;;;;;;;;;1.10;87.19;101573.79;106205;1289;59378;-82
2023/01/26 03:12:03;;;;;;;;;;;;;;;1.12;87.18;101575.73;106141;1289;73477;-82
2023/01/26 03:15:33;;;;;;;;;;;;;;;1.13;87.17;101576.30;106113;1292;67416;-82
2023/01/26 03:27:25;;;;;;;;;;;;;;;1.16;87.14;101559.95;105400;1289;77428;-82
2023/01/26 03:30:12;;;;;;;;;;;;;;;1.16;87.08;101558.39;105311;1294;67162;-82
2023/01/26 03:32:58;;;;;;;;;;;;;;;1.15;87.14;101557.19;105190;1294;218150;-82
2023/01/26 03:35:44;;;;;;;;;;;;;;;1.15;87.16;101552.42;105237;1289;61120;-82
2023/01/26 03:38:30;;;;;;;;;;;;;;;1.15;87.19;101551.92;105276;1289;61589;-82
2023/01/26 03:56:40;;;;;;;;;;;;;;;1.17;87.23;101539.41;105242;1296;74894;-82
2023/01/26 03:59:39;;;;;;;;;;;;;;;1.17;87.17;101536.87;105289;1295;67378;-82
2023/01/26 04:08:34;;;;;;;;;;;;;;;1.16;87.19;101538.02;105163;1294;59481;-82
2023/01/26 04:11:20;;;;;;;;;;;;;;;1.16;87.21;101530.20;105304;1292;75111;-82
2023/01/26 04:23:24;;;;;;;;;;;;;;;1.18;87.23;101524.00;105302;1289;59712;-82
2023/01/26 04:26:10;;;;;;;;;;;;;;;1.17;87.19;101520.41;105277;1293;73616;-82
2023/01/26 04:28:55;;;;;;;;;;;;;;;1.18;87.18;101520.11;105388;1290;68345;-82
2023/01/26 04:31:42;;;;;;;;;;;;;;;1.18;87.14;101518.41;105246;1289;71278;-82
2023/01/26 04:34:28;;;;;;;;;;;;;;;1.18;87.17;101520.61;105220;1295;59256;-82
2023/01/26 04:37:14;;;;;;;;;;;;;;;1.18;87.17;101519.06;105123;1291;61207;-82
2023/01/26 04:40:00;;;;;;;;;;;;;;;1.19;87.27;101517.40;105319;1294;73175;-82
2023/01/26 04:42:46;;;;;;;;;;;;;;;1.19;87.32;101516.75;105312;1291;67291;-82
2023/01/26 04:45:32;;;;;;;;;;;;;;;1.21;87.29;101520.21;105340;1292;72159;-82
2023/01/26 04:48:18;;;;;;;;;;;;;;;1.21;87.25;101517.33;105347;1293;59241;-82
2023/01/26 04:51:05;;;;;;;;;;;;;;;1.21;87.20;101508.67;105377;1291;59502;-82
2023/01/26 04:53:51;;;;;;;;;;;;;;;1.22;87.26;101507.51;105287;1290;73430;-82
2023/01/26 04:56:38;;;;;;;;;;;;;;;1.23;87.24;101507.20;105298;1293;68190;-82
2023/01/26 04:59:24;;;;;;;;;;;;;;;1.22;87.17;101501.23;105226;1294;72385;-82
2023/01/26 05:02:10;;;;;;;;;;;;;;;1.21;87.20;101495.77;105266;1290;59330;-82
2023/01/26 05:04:56;;;;;;;;;;;;;;;1.22;87.20;101492.89;105279;1291;59465;-82
2023/01/26 05:07:42;;;;;;;;;;;;;;;1.21;87.27;101489.83;105302;1290;73589;-82
2023/01/26 05:10:28;;;;;;;;;;;;;;;1.20;87.21;101485.72;105262;1293;68603;-82
2023/01/26 05:13:14;;;;;;;;;;;;;;;1.21;87.24;101481.83;105219;1289;71419;-82
2023/01/26 05:16:03;;;;;;;;;;;;;;;1.21;87.27;101486.23;105290;1290;59379;-82
2023/01/26 05:18:49;;;;;;;;;;;;;;;1.21;87.29;101485.41;105298;1290;60422;-82
2023/01/26 05:21:36;;;;;;;;;;;;;;;1.21;87.24;101478.77;105297;1293;74094;-82
2023/01/26 05:24:22;;;;;;;;;;;;;;;1.21;87.24;101479.27;105222;1290;67526;-82
2023/01/26 05:27:20;;;;;;;;;;;;;;;1.21;87.27;101480.63;105299;1294;71260;-82
2023/01/26 05:30:06;;;;;;;;;;;;;;;1.20;87.27;101478.92;105250;1294;59898;-82
2023/01/26 05:32:53;;;;;;;;;;;;;;;1.21;87.32;101474.70;105332;1291;59541;-82
2023/01/26 05:35:39;;;;;;;;;;;;;;;1.22;87.32;101473.89;105165;1291;75518;-81
2023/01/26 05:38:25;;;;;;;;;;;;;;;1.22;87.24;101478.83;105255;1291;68907;-82
2023/01/26 05:41:12;;;;;;;;;;;;;;;1.22;87.31;101476.11;105420;1289;71354;-82
2023/01/26 05:43:57;;;;;;;;;;;;;;;1.22;87.31;101484.07;105324;1290;61235;-81
2023/01/26 05:46:44;;;;;;;;;;;;;;;1.22;87.27;101494.42;105268;1290;61211;-82
2023/01/26 05:49:31;;;;;;;;;;;;;;;1.22;87.27;101492.89;105419;1288;77373;-80
2023/01/26 05:52:18;;;;;;;;;;;;;;;1.21;87.21;101492.52;105432;1288;67873;-83
2023/01/26 05:55:05;;;;;;;;;;;;;;;1.20;87.27;101491.46;105374;1288;74052;-83
2023/01/26 05:57:51;;;;;;;;;;;;;;;1.20;87.28;101492.98;105140;1291;59719;-82
2023/01/26 06:00:37;;;;;;;;;;;;;;;1.21;87.28;101489.12;105263;1289;61325;-83
2023/01/26 06:03:23;;;;;;;;;;;;;;;1.20;87.29;101489.77;105387;1294;75006;-82
2023/01/26 06:06:09;;;;;;;;;;;;;;;1.21;87.29;101478.25;105357;1288;68519;-82
2023/01/26 06:08:56;;;;;;;;;;;;;;;1.21;87.30;101469.26;105313;1292;71373;-83
2023/01/26 06:11:42;;;;;;;;;;;;;;;1.22;87.35;101472.02;105324;1288;61147;-83
2023/01/26 06:14:29;;;;;;;;;;;;;;;1.22;87.37;101469.30;105414;1291;59868;-81
2023/01/26 06:17:16;;;;;;;;;;;;;;;1.22;87.30;101468.61;105360;1289;74703;-81
2023/01/26 06:20:02;;;;;;;;;;;;;;;1.21;87.26;101471.30;105309;1289;68472;-81
2023/01/26 06:22:48;;;;;;;;;;;;;;;1.21;87.29;101470.62;105430;1294;73163;-82
2023/01/26 06:25:34;;;;;;;;;;;;;;;1.20;87.22;101473.48;105312;1291;59617;-81
2023/01/26 06:28:20;;;;;;;;;;;;;;;1.19;87.26;101475.99;105361;1289;61206;-82
2023/01/26 06:31:07;;;;;;;;;;;;;;;1.20;87.29;101478.04;105327;1289;75518;-82
2023/01/26 06:33:54;;;;;;;;;;;;;;;1.19;87.36;101478.03;105286;1289;67279;-82
2023/01/26 06:36:40;;;;;;;;;;;;;;;1.19;87.38;101477.19;105290;1288;73826;-82
2023/01/26 06:39:26;;;;;;;;;;;;;;;1.20;87.32;101474.14;105364;1292;59206;-82
2023/01/26 06:42:12;;;;;;;;;;;;;;;1.21;87.35;101477.58;105376;1289;60191;-81
2023/01/26 06:44:58;;;;;;;;;;;;;;;1.20;87.25;101488.08;105444;1288;73221;-82
2023/01/26 06:47:45;;;;;;;;;;;;;;;1.19;87.31;101490.94;105359;1288;67649;-82
2023/01/26 06:50:32;;;;;;;;;;;;;;;1.19;87.28;101495.02;105325;1289;71939;-82
2023/01/26 06:53:27;;;;;;;;;;;;;;;1.19;87.33;101492.80;105282;1288;61164;-82
2023/01/26 06:56:13;;;;;;;;;;;;;;;1.21;87.32;101490.16;105384;1289;61816;-81
2023/01/26 06:58:59;;;;;;;;;;;;;;;1.23;87.31;101493.63;105294;1288;73872;-81
2023/01/26 07:01:47;;;;;;;;;;;;;;;1.23;87.30;101494.83;105371;1291;67399;-81
2023/01/26 07:04:33;;;;;;;;;;;;;;;1.24;87.39;101490.95;105319;1288;71447;-82
2023/01/26 07:07:19;;;;;;;;;;;;;;;1.25;87.36;101488.95;105366;1294;61438;-81
2023/01/26 07:10:06;;;;;;;;;;;;;;;1.26;87.33;101491.88;105407;1288;61191;-81
2023/01/26 07:12:52;;;;;;;;;;;;;;;1.26;87.31;101497.11;105424;1290;75657;-81
2023/01/26 07:15:38;;;;;;;;;;;;;;;1.26;87.34;101494.59;105320;1289;68113;-82
2023/01/26 07:18:24;;;;;;;;;;;;;;;1.27;87.40;101489.70;105351;1288;71158;-81
2023/01/26 07:21:11;;;;;;;;;;;;;;;1.29;87.40;101488.23;105357;1288;61419;-81
2023/01/26 07:23:57;;;;;;;;;;;;;;;1.29;87.33;101489.27;105302;1290;59313;-82
2023/01/26 07:26:43;;;;;;;;;;;;;;;1.30;87.42;101489.48;105277;1288;76086;-82
2023/01/26 07:29:29;;;;;;;;;;;;;;;1.31;87.40;101488.66;105378;1289;67186;-82
2023/01/26 07:32:15;;;;;;;;;;;;;;;1.31;87.31;101488.99;105339;1288;71460;-82
2023/01/26 07:35:01;;;;;;;;;;;;;;;1.27;87.20;101491.39;105339;1289;61256;-82
2023/01/26 07:37:47;;;;;;;;;;;;;;;1.24;87.26;101491.12;105379;1288;60541;-82
2023/01/26 07:40:33;;;;;;;;;;;;;;;1.21;87.18;101490.66;105415;1291;73315;-82
2023/01/26 07:43:19;;;;;;;;;;;;;;;1.20;87.23;101493.66;105299;1288;68391;-82
2023/01/26 07:46:06;;;;;;;;;;;;;;;1.18;87.32;101494.64;105294;1291;71998;-82
2023/01/26 07:48:52;;;;;;;;;;;;;;;1.19;87.37;101492.63;101726;1289;5003482;-82
2023/01/26 07:51:38;;;;;;;;;;;;;;;1.20;87.39;101489.45;105432;1294;74518;-82
2023/01/26 07:54:25;;;;;;;;;;;;;;;1.24;87.44;101487.54;106033;1288;68494;-82
2023/01/26 07:57:11;;;;;;;;;;;;;;;1.26;87.35;101484.38;105931;1290;72392;-82
2023/01/26 07:59:57;;;;;;;;;;;;;;;1.27;87.40;101484.61;105990;1288;58883;-82
2023/01/26 08:02:43;;;;;;;;;;;;;;;1.32;87.47;101482.73;106091;1291;59854;-82
2023/01/26 08:05:30;;;;;;;;;;;;;;;1.36;87.43;101476.92;105994;1290;73891;-82
2023/01/26 08:08:16;;;;;;;;;;;;;;;1.40;87.50;101475.38;106016;1288;67985;-82
2023/01/26 08:11:02;;;;;;;;;;;;;;;1.45;87.51;101475.39;105859;1288;72538;-82
2023/01/26 08:13:48;;;;;;;;;;;;;;;1.50;87.47;101475.21;105472;1288;61240;-75
2023/01/26 08:16:34;;;;;;;;;;;;;;;1.53;87.46;101479.73;104972;1295;59704;-75
2023/01/26 08:19:20;;;;;;;;;;;;;;;1.57;87.48;101476.44;104987;1288;73333;-76
2023/01/26 08:22:06;;;;;;;;;;;;;;;1.58;87.49;101470.36;105046;1288;68026;-76
2023/01/26 08:24:52;;;;;;;;;;;;;;;1.60;87.47;101469.08;105001;1290;71280;-76
2023/01/26 08:27:38;;;;;;;;;;;;;;;1.61;87.44;101468.09;105039;1290;61188;-75
2023/01/26 08:30:24;;;;;;;;;;;;;;;1.62;87.36;101469.13;105038;1292;59830;-75
2023/01/26 08:33:10;;;;;;;;;;;;;;;1.63;87.41;101468.65;105032;1288;73410;-76
2023/01/26 08:36:01;;;;;;;;;;;;;;;1.63;87.45;101467.99;104990;1289;67387;-76
2023/01/26 08:38:47;;;;;;;;;;;;;;;1.65;87.41;101462.44;104944;1289;70331;-76
2023/01/26 08:41:33;;;;;;;;;;;;;;;1.64;87.40;101468.54;104807;1292;61157;-76
2023/01/26 08:44:19;;;;;;;;;;;;;;;1.65;87.36;101475.20;104980;1290;61178;-76
2023/01/26 08:47:05;;;;;;;;;;;;;;;1.66;87.37;101475.73;104948;1290;73600;-76
2023/01/26 08:49:51;;;;;;;;;;;;;;;1.67;87.39;101471.52;105026;1294;70102;-76
2023/01/26 08:52:37;;;;;;;;;;;;;;;1.68;87.39;101469.69;104977;1291;73487;-76
2023/01/26 08:55:23;;;;;;;;;;;;;;;1.68;87.32;101470.52;104974;1291;61284;-75
2023/01/26 08:58:09;;;;;;;;;;;;;;;1.69;87.37;101477.36;104958;1290;61112;-75
2023/01/26 09:00:55;;;;;;;;;;;;;;;1.72;87.41;101478.48;104961;1290;74343;-75
2023/01/26 09:03:42;;;;;;;;;;;;;;;1.73;87.33;101472.89;104943;1290;67206;-76
2023/01/26 09:06:29;;;;;;;;;;;;;;;1.73;87.31;101468.15;104953;1291;71589;-76
2023/01/26 09:09:15;;;;;;;;;;;;;;;1.74;87.35;101469.35;104901;1290;61256;-76
2023/01/26 09:12:01;;;;;;;;;;;;;;;1.74;87.31;101471.92;104836;1294;61184;-76
2023/01/26 09:14:47;;;;;;;;;;;;;;;1.75;87.39;101476.73;104983;1291;73439;-80
2023/01/26 09:17:33;;;;;;;;;;;;;;;1.77;87.39;101478.14;104808;1293;68024;-80
2023/01/26 09:20:19;;;;;;;;;;;;;;;1.79;87.42;101479.73;104803;1290;71200;-80
2023/01/26 09:23:06;;;;;;;;;;;;;;;1.79;87.43;101479.56;104884;1290;61551;-80
2023/01/26 09:25:52;;;;;;;;;;;;;;;1.81;87.39;101477.42;104955;1290;61125;-80
2023/01/26 09:28:38;;;;;;;;;;;;;;;1.83;87.38;101479.86;104831;1290;73422;-80
2023/01/26 09:31:24;;;;;;;;;;;;;;;1.84;87.34;101480.27;104696;1291;67598;-80
2023/01/26 09:34:10;;;;;;;;;;;;;;;1.87;87.41;101477.64;104906;1293;71732;-81
2023/01/26 09:36:56;;;;;;;;;;;;;;;1.91;87.42;101481.67;104805;1291;62340;-80
2023/01/26 09:39:42;;;;;;;;;;;;;;;1.94;87.41;101479.91;104849;1290;61178;-80
2023/01/26 09:42:51;;;;;;;;;;;;;;;1.96;87.39;101479.83;104807;1291;73172;-80
2023/01/26 09:45:42;;;;;;;;;;;;;;;1.99;87.36;101485.00;104968;1290;66216;-80
2023/01/26 09:48:51;;;;;;;;;;;;;;;2.02;87.35;101485.76;104795;1290;71190;-80
2023/01/26 09:51:40;;;;;;;;;;;;;;;2.04;87.33;101478.86;104794;1295;59538;-81
2023/01/26 09:54:26;;;;;;;;;;;;;;;2.08;87.35;101475.75;104750;1299;61166;-81
2023/01/26 09:57:15;;;;;;;;;;;;;;;2.09;87.26;101468.80;104728;1296;74081;-81
2023/01/26 10:00:10;;;;;;;;;;;;;;;2.12;87.28;101471.80;104700;1295;69124;-81
2023/01/26 10:03:15;;;;;;;;;;;;;;;2.15;87.28;101467.12;104789;1299;72331;-81
2023/01/26 10:06:14;;;;;;;;;;;;;;;2.17;87.28;101460.90;104813;1296;59374;-81
2023/01/26 10:09:05;;;;;;;;;;;;;;;2.22;87.28;101459.52;104753;1296;61559;-81
2023/01/26 10:11:55;;;;;;;;;;;;;;;2.28;87.35;101452.23;104796;1296;75214;-82
2023/01/26 10:14:44;;;;;;;;;;;;;;;2.34;87.36;101449.02;104836;1296;67419;-81
2023/01/26 10:17:35;;;;;;;;;;;;;;;2.40;87.36;101448.00;104824;1297;71374;-82
2023/01/26 10:20:33;;;;;;;;;;;;;;;2.48;87.35;101439.39;104779;1297;61230;-81
2023/01/26 10:23:29;;;;;;;;;;;;;;;2.53;87.20;101439.20;104904;1296;60260;-80
2023/01/26 10:26:17;;;;;;;;;;;;;;;2.56;87.21;101440.34;104813;1297;76132;-81
2023/01/26 10:29:03;;;;;;;;;;;;;;;2.60;87.15;101441.10;105137;1291;68303;-80
2023/01/26 10:31:49;;;;;;;;;;;;;;;2.62;87.15;101440.98;105114;1290;71293;-81
2023/01/26 10:34:37;;;;;;;;;;;;;;;2.64;87.09;101436.63;105285;1293;61181;-81
2023/01/26 10:37:26;;;;;;;;;;;;;;;2.62;87.01;101437.25;105394;1288;59270;-81
2023/01/26 10:40:13;;;;;;;;;;;;;;;2.59;86.98;101435.65;105416;1288;73308;-81
2023/01/26 10:42:59;;;;;;;;;;;;;;;2.59;87.05;101436.31;105320;1288;68117;-81
2023/01/26 10:45:45;;;;;;;;;;;;;;;2.59;87.04;101444.84;105275;1288;71925;-81
2023/01/26 10:48:33;;;;;;;;;;;;;;;2.59;86.95;101442.95;105327;1292;61170;-81
2023/01/26 10:51:22;;;;;;;;;;;;;;;2.60;87.08;101440.77;105355;1288;59872;-81
2023/01/26 10:54:20;;;;;;;;;;;;;;;2.61;87.09;101432.63;105469;1288;74533;-80
2023/01/26 10:57:18;;;;;;;;;;;;;;;2.60;87.03;101425.11;105403;1288;68219;-81
2023/01/26 11:00:06;;;;;;;;;;;;;;;2.61;87.09;101424.10;105465;1289;71263;-80
2023/01/26 11:02:54;;;;;;;;;;;;;;;2.60;87.03;101419.16;105327;1288;61093;-77
2023/01/26 11:05:42;;;;;;;;;;;;;;;2.60;87.00;101416.43;105053;1291;59676;-77
2023/01/26 11:08:31;;;;;;;;;;;;;;;2.59;87.08;101415.90;105072;1291;76331;-77
2023/01/26 11:11:24;;;;;;;;;;;;;;;2.56;86.95;101410.20;105981;1289;67813;-77
2023/01/26 11:14:13;;;;;;;;;;;;;;;2.54;86.95;101406.23;106036;1289;73472;-77
2023/01/26 11:17:02;;;;;;;;;;;;;;;2.52;86.95;101396.98;105982;1290;59519;-77
2023/01/26 11:19:57;;;;;;;;;;;;;;;2.52;86.99;101395.29;106029;1289;59804;-77
2023/01/26 11:22:52;;;;;;;;;;;;;;;2.52;86.95;101394.27;106036;1288;73545;-79
2023/01/26 11:25:47;;;;;;;;;;;;;;;2.56;87.03;101392.50;106044;1289;68151;-81
2023/01/26 11:28:39;;;;;;;;;;;;;;;2.57;87.05;101385.05;106077;1288;72038;-81
2023/01/26 11:31:38;;;;;;;;;;;;;;;2.60;87.03;101380.85;106124;1288;59108;-81
2023/01/26 11:34:42;;;;;;;;;;;;;;;2.61;87.00;101373.73;106044;1290;59462;-81
2023/01/26 11:37:38;;;;;;;;;;;;;;;2.60;86.94;101378.82;105472;1288;73052;-81
2023/01/26 11:40:42;;;;;;;;;;;;;;;2.60;86.93;101377.29;105472;1288;68584;-81
2023/01/26 11:43:47;;;;;;;;;;;;;;;2.59;86.88;101372.85;105374;1289;74021;-81
2023/01/26 11:46:44;;;;;;;;;;;;;;;2.57;86.85;101370.39;105439;1288;61815;-81
2023/01/26 11:49:33;;;;;;;;;;;;;;;2.55;86.87;101367.60;97973;1290;5003033;-81
2023/01/26 11:52:30;;;;;;;;;;;;;;;2.53;86.85;101364.84;105415;1288;73897;-81
2023/01/26 11:55:45;;;;;;;;;;;;;;;2.53;86.90;101359.73;105429;1288;71550;-81
2023/01/26 11:58:51;;;;;;;;;;;;;;;2.52;86.88;101350.19;104980;1288;71229;-80
2023/01/26 12:01:40;;;;;;;;;;;;;;;2.53;86.90;101340.49;104840;1297;61162;-82
2023/01/26 12:04:27;;;;;;;;;;;;;;;2.53;86.89;101334.04;104792;1297;59293;-81
2023/01/26 12:07:21;;;;;;;;;;;;;;;2.51;86.85;101334.67;104950;1298;73984;-80
2023/01/26 12:10:11;;;;;;;;;;;;;;;2.51;86.83;101335.35;104866;1296;67142;-80
2023/01/26 12:13:07;;;;;;;;;;;;;;;2.51;86.83;101337.05;104874;1294;72777;-80
2023/01/26 12:15:55;;;;;;;;;;;;;;;2.49;86.78;101336.30;104878;1296;61745;-82
2023/01/26 12:18:47;;;;;;;;;;;;;;;2.45;86.78;101338.25;104823;1295;61222;-80
2023/01/26 12:21:35;;;;;;;;;;;;;;;2.43;86.73;101341.58;104965;1295;75135;-81
2023/01/26 12:24:27;;;;;;;;;;;;;;;2.42;86.74;101341.71;104937;1294;67402;-80
2023/01/26 12:27:22;;;;;;;;;;;;;;;2.41;86.79;101337.10;104876;1297;75860;-80
2023/01/26 12:30:31;;;;;;;;;;;;;;;2.41;86.75;101335.05;104910;1295;61374;-81
2023/01/26 12:33:17;;;;;;;;;;;;;;;2.39;86.80;101333.80;104193;1302;60130;-76
2023/01/26 12:36:36;;;;;;;;;;;;;;;2.37;86.73;101331.71;104030;1300;74607;-75
2023/01/26 12:39:48;;;;;;;;;;;;;;;2.33;86.75;101329.39;103898;1303;67411;-80
2023/01/26 12:42:54;;;;;;;;;;;;;;;2.29;86.70;101322.30;103534;1307;71334;-79
2023/01/26 12:45:44;;;;;;;;;;;;;;;2.27;86.72;101319.00;103000;1311;61164;-80
2023/01/26 12:48:33;;;;;;;;;;;;;;;2.25;86.69;101317.44;103389;1312;59455;-80
2023/01/26 12:51:23;;;;;;;;;;;;;;;2.24;86.67;101316.54;102989;1312;74947;-79
2023/01/26 12:54:11;;;;;;;;;;;;;;;2.23;86.82;101318.21;102994;1312;67683;-80
2023/01/26 12:56:59;;;;;;;;;;;;;;;2.24;86.81;101323.86;103015;1311;71073;-80
2023/01/26 12:59:46;;;;;;;;;;;;;;;2.24;86.69;101322.16;102992;1313;61805;-79
2023/01/26 13:02:33;;;;;;;;;;;;;;;2.24;86.67;101316.02;102980;1314;61599;-79
2023/01/26 13:05:23;;;;;;;;;;;;;;;2.23;86.70;101315.49;102968;1312;73958;-79
2023/01/26 13:08:27;;;;;;;;;;;;;;;2.22;86.61;101316.64;102977;1314;68556;-79
2023/01/26 13:11:33;;;;;;;;;;;;;;;2.19;86.66;101316.39;103496;1308;72655;-76
2023/01/26 13:14:22;;;;;;;;;;;;;;;2.18;86.67;101322.14;103797;1300;59996;-75
2023/01/26 13:17:34;;;;;;;;;;;;;;;2.19;86.68;101325.90;104284;1300;59323;-75
2023/01/26 13:20:41;;;;;;;;;;;;;;;2.19;86.65;101329.83;103958;1302;74333;-75
2023/01/26 13:23:27;;;;;;;;;;;;;;;2.18;86.62;101323.16;103935;1303;66391;-77
2023/01/26 13:26:20;;;;;;;;;;;;;;;2.18;86.65;101325.70;104395;1302;71252;-81
2023/01/26 13:29:26;;;;;;;;;;;;;;;2.16;86.60;101329.22;104328;1302;61405;-80
2023/01/26 13:32:33;;;;;;;;;;;;;;;2.15;86.56;101327.48;100624;1301;5175765;-80
2023/01/26 13:35:22;;;;;;;;;;;;;;;2.14;86.60;101327.27;103897;1309;74161;-80
2023/01/26 13:38:14;;;;;;;;;;;;;;;2.15;86.61;101328.52;103678;1308;68509;-81
2023/01/26 13:41:05;;;;;;;;;;;;;;;2.16;86.63;101329.06;103783;1309;72577;-74
2023/01/26 13:43:53;;;;;;;;;;;;;;;2.16;86.62;101324.46;103495;1309;59273;-82
2023/01/26 13:46:44;;;;;;;;;;;;;;;2.16;86.63;101323.43;103953;1308;59476;-82
2023/01/26 13:49:38;;;;;;;;;;;;;;;2.16;86.65;101321.91;103854;1308;73606;-81
2023/01/26 13:52:24;;;;;;;;;;;;;;;2.15;86.57;101328.01;103834;1311;67542;-80
2023/01/26 13:55:18;;;;;;;;;;;;;;;2.15;86.51;101332.60;103848;1311;72644;-82
2023/01/26 13:58:15;;;;;;;;;;;;;;;2.15;86.55;101331.08;104272;1302;61109;-81
2023/01/26 14:01:03;;;;;;;;;;;;;;;2.14;86.55;101329.84;104643;1300;59705;-79
2023/01/26 14:04:01;;;;;;;;;;;;;;;2.12;86.55;101326.05;104376;1299;74345;-78
2023/01/26 14:07:10;;;;;;;;;;;;;;;2.12;86.60;101321.63;104329;1299;67340;-79
2023/01/26 14:09:58;;;;;;;;;;;;;;;2.13;86.67;101320.81;104232;1302;71291;-79
2023/01/26 14:12:45;;;;;;;;;;;;;;;2.14;86.63;101322.02;104208;1300;59738;-80
2023/01/26 14:15:33;;;;;;;;;;;;;;;2.15;86.56;101321.36;104971;1297;59915;-86
2023/01/26 14:18:21;;;;;;;;;;;;;;;2.14;86.57;101323.72;104963;1296;73326;-81
2023/01/26 14:21:16;;;;;;;;;;;;;;;2.16;86.69;101327.02;104829;1295;66688;-80
2023/01/26 14:24:07;;;;;;;;;;;;;;;2.15;86.57;101329.71;104901;1295;72604;-80
2023/01/26 14:26:53;;;;;;;;;;;;;;;2.15;86.59;101330.88;104894;1296;63637;-81
2023/01/26 14:29:40;;;;;;;;;;;;;;;2.13;86.50;101332.17;104914;1295;61399;-80
2023/01/26 14:32:28;;;;;;;;;;;;;;;2.08;86.47;101332.05;104845;1294;73324;-80
2023/01/26 14:35:23;;;;;;;;;;;;;;;2.02;86.42;101334.27;104921;1297;71416;-80
2023/01/26 14:38:09;;;;;;;;;;;;;;;1.94;86.34;101334.36;104861;1298;71778;-81
2023/01/26 14:40:57;;;;;;;;;;;;;;;1.88;86.37;101335.05;104940;1295;59696;-81
2023/01/26 14:43:44;;;;;;;;;;;;;;;1.83;86.35;101338.63;104830;1296;60020;-81
2023/01/26 14:46:30;;;;;;;;;;;;;;;1.79;86.38;101339.85;105077;1291;73256;-81
2023/01/26 14:49:23;;;;;;;;;;;;;;;1.75;86.42;101345.16;105147;1288;321890;-81
2023/01/26 14:52:23;;;;;;;;;;;;;;;1.71;86.44;101341.80;105350;1288;71211;-80
2023/01/26 14:55:20;;;;;;;;;;;;;;;1.67;86.43;101342.88;105235;1290;59383;-80
2023/01/26 14:58:12;;;;;;;;;;;;;;;1.62;86.35;101339.63;105352;1288;61119;-81
2023/01/26 15:00:59;;;;;;;;;;;;;;;1.60;86.41;101342.98;105392;1288;74549;-81
2023/01/26 15:03:47;;;;;;;;;;;;;;;1.58;86.41;101339.84;105435;1292;68175;-81
2023/01/26 15:06:33;;;;;;;;;;;;;;;1.55;86.39;101337.76;105422;1288;72615;-81
2023/01/26 15:09:26;;;;;;;;;;;;;;;1.52;86.40;101336.63;105422;1290;61280;-81
2023/01/26 15:12:15;;;;;;;;;;;;;;;1.50;86.45;101338.63;105356;1290;59295;-80
2023/01/26 15:15:02;;;;;;;;;;;;;;;1.50;86.46;101338.29;105390;1288;73443;-80
2023/01/26 15:17:59;;;;;;;;;;;;;;;1.51;86.48;101339.34;105414;1291;68861;-81
2023/01/26 15:20:59;;;;;;;;;;;;;;;1.51;86.46;101337.98;105363;1290;71310;-80